sensor_id;sensor_type;location;lat;lon;timestamp;P1;durP1;ratioP1;P2;durP2;ratioP2
58152;SDS011;43967;51.634;5.566;2022-08-21T00:01:42;6.87;;;2.40;;
58152;SDS011;43967;51.634;5.566;2022-08-21T00:06:44;6.40;;;2.40;;
58152;SDS011;43967;51.634;5.566;2022-08-21T00:11:45;6.55;;;2.35;;
58152;SDS011;43967;51.634;5.566;2022-08-21T00:16:47;8.37;;;3.00;;
58152;SDS011;43967;51.634;5.566;2022-08-21T00:21:48;6.78;;;2.10;;
58152;SDS011;43967;51.634;5.566;2022-08-21T00:26:49;6.22;;;2.40;;
58152;SDS011;43967;51.634;5.566;2022-08-21T00:31:50;6.67;;;2.30;;
58152;SDS011;43967;51.634;5.566;2022-08-21T00:36:51;6.77;;;2.33;;
58152;SDS011;43967;51.634;5.566;2022-08-21T00:41:52;8.18;;;2.42;;
58152;SDS011;43967;51.634;5.566;2022-08-21T00:46:54;6.50;;;2.15;;
58152;SDS011;43967;51.634;5.566;2022-08-21T00:51:55;6.10;;;2.20;;
58152;SDS011;43967;51.634;5.566;2022-08-21T00:57:01;6.32;;;2.03;;
58152;SDS011;43967;51.634;5.566;2022-08-21T01:02:08;6.88;;;2.40;;
58152;SDS011;43967;51.634;5.566;2022-08-21T01:07:09;6.00;;;2.40;;
58152;SDS011;43967;51.634;5.566;2022-08-21T01:12:10;6.75;;;2.22;;
58152;SDS011;43967;51.634;5.566;2022-08-21T01:17:12;5.80;;;2.10;;
58152;SDS011;43967;51.634;5.566;2022-08-21T01:22:14;5.80;;;2.00;;
58152;SDS011;43967;51.634;5.566;2022-08-21T01:27:16;6.50;;;2.20;;
58152;SDS011;43967;51.634;5.566;2022-08-21T01:32:18;5.72;;;2.00;;
58152;SDS011;43967;51.634;5.566;2022-08-21T01:37:21;5.40;;;1.80;;
58152;SDS011;43967;51.634;5.566;2022-08-21T01:42:22;5.77;;;2.07;;
58152;SDS011;43967;51.634;5.566;2022-08-21T01:47:23;6.20;;;2.17;;
58152;SDS011;43967;51.634;5.566;2022-08-21T01:52:24;6.30;;;2.58;;
58152;SDS011;43967;51.634;5.566;2022-08-21T01:57:26;6.70;;;2.23;;
58152;SDS011;43967;51.634;5.566;2022-08-21T02:02:27;5.95;;;2.17;;
58152;SDS011;43967;51.634;5.566;2022-08-21T02:07:35;5.95;;;2.17;;
58152;SDS011;43967;51.634;5.566;2022-08-21T02:12:40;6.93;;;2.17;;
58152;SDS011;43967;51.634;5.566;2022-08-21T02:17:44;5.97;;;1.90;;
58152;SDS011;43967;51.634;5.566;2022-08-21T02:22:46;6.43;;;2.30;;
58152;SDS011;43967;51.634;5.566;2022-08-21T02:27:48;6.18;;;2.00;;
58152;SDS011;43967;51.634;5.566;2022-08-21T02:32:49;5.60;;;1.93;;
58152;SDS011;43967;51.634;5.566;2022-08-21T02:37:52;5.85;;;2.10;;
58152;SDS011;43967;51.634;5.566;2022-08-21T02:42:58;5.68;;;2.13;;
58152;SDS011;43967;51.634;5.566;2022-08-21T02:48:04;6.27;;;2.30;;
58152;SDS011;43967;51.634;5.566;2022-08-21T02:53:08;6.10;;;1.90;;
58152;SDS011;43967;51.634;5.566;2022-08-21T02:58:11;5.85;;;2.30;;
58152;SDS011;43967;51.634;5.566;2022-08-21T03:03:15;6.10;;;2.10;;
58152;SDS011;43967;51.634;5.566;2022-08-21T03:08:17;6.53;;;2.17;;
58152;SDS011;43967;51.634;5.566;2022-08-21T03:13:20;5.75;;;2.30;;
58152;SDS011;43967;51.634;5.566;2022-08-21T03:18:21;5.88;;;2.00;;
58152;SDS011;43967;51.634;5.566;2022-08-21T03:23:22;5.77;;;1.70;;
58152;SDS011;43967;51.634;5.566;2022-08-21T03:28:24;6.10;;;2.00;;
58152;SDS011;43967;51.634;5.566;2022-08-21T03:33:25;5.45;;;1.95;;
58152;SDS011;43967;51.634;5.566;2022-08-21T03:38:27;5.93;;;2.00;;
58152;SDS011;43967;51.634;5.566;2022-08-21T03:43:29;5.93;;;2.10;;
58152;SDS011;43967;51.634;5.566;2022-08-21T03:48:30;5.68;;;2.10;;
58152;SDS011;43967;51.634;5.566;2022-08-21T03:53:32;6.13;;;2.17;;
58152;SDS011;43967;51.634;5.566;2022-08-21T03:58:33;6.27;;;2.00;;
58152;SDS011;43967;51.634;5.566;2022-08-21T04:03:35;6.25;;;1.85;;
58152;SDS011;43967;51.634;5.566;2022-08-21T04:08:37;6.30;;;2.17;;
58152;SDS011;43967;51.634;5.566;2022-08-21T04:13:38;5.63;;;2.03;;
58152;SDS011;43967;51.634;5.566;2022-08-21T04:18:39;5.70;;;2.10;;
58152;SDS011;43967;51.634;5.566;2022-08-21T04:23:42;5.78;;;2.00;;
58152;SDS011;43967;51.634;5.566;2022-08-21T04:28:43;7.33;;;2.00;;
58152;SDS011;43967;51.634;5.566;2022-08-21T04:33:44;5.55;;;2.00;;
58152;SDS011;43967;51.634;5.566;2022-08-21T04:38:45;5.95;;;2.30;;
58152;SDS011;43967;51.634;5.566;2022-08-21T04:43:46;5.70;;;1.97;;
58152;SDS011;43967;51.634;5.566;2022-08-21T04:48:47;6.43;;;2.20;;
58152;SDS011;43967;51.634;5.566;2022-08-21T04:53:50;5.75;;;1.95;;
58152;SDS011;43967;51.634;5.566;2022-08-21T04:59:01;5.57;;;1.83;;
58152;SDS011;43967;51.634;5.566;2022-08-21T05:04:06;5.70;;;2.00;;
58152;SDS011;43967;51.634;5.566;2022-08-21T05:09:11;5.75;;;2.00;;
58152;SDS011;43967;51.634;5.566;2022-08-21T05:14:14;5.70;;;2.00;;
58152;SDS011;43967;51.634;5.566;2022-08-21T05:19:16;6.47;;;2.10;;
58152;SDS011;43967;51.634;5.566;2022-08-21T05:24:17;5.93;;;1.98;;
58152;SDS011;43967;51.634;5.566;2022-08-21T05:29:18;5.40;;;2.00;;
58152;SDS011;43967;51.634;5.566;2022-08-21T05:34:20;5.63;;;2.03;;
58152;SDS011;43967;51.634;5.566;2022-08-21T05:39:23;6.33;;;2.10;;
58152;SDS011;43967;51.634;5.566;2022-08-21T05:44:24;7.05;;;2.28;;
58152;SDS011;43967;51.634;5.566;2022-08-21T05:49:25;6.28;;;2.28;;
58152;SDS011;43967;51.634;5.566;2022-08-21T05:54:26;6.50;;;2.27;;
58152;SDS011;43967;51.634;5.566;2022-08-21T05:59:27;6.10;;;2.03;;
58152;SDS011;43967;51.634;5.566;2022-08-21T06:04:29;5.43;;;1.90;;
58152;SDS011;43967;51.634;5.566;2022-08-21T06:09:30;5.80;;;2.40;;
58152;SDS011;43967;51.634;5.566;2022-08-21T06:14:31;6.72;;;2.10;;
58152;SDS011;43967;51.634;5.566;2022-08-21T06:19:32;5.43;;;2.15;;
58152;SDS011;43967;51.634;5.566;2022-08-21T06:24:34;5.30;;;1.83;;
58152;SDS011;43967;51.634;5.566;2022-08-21T06:29:36;6.43;;;2.27;;
58152;SDS011;43967;51.634;5.566;2022-08-21T06:34:37;5.55;;;2.00;;
58152;SDS011;43967;51.634;5.566;2022-08-21T06:39:40;6.45;;;2.13;;
58152;SDS011;43967;51.634;5.566;2022-08-21T06:44:41;6.13;;;2.00;;
58152;SDS011;43967;51.634;5.566;2022-08-21T06:49:43;5.90;;;2.00;;
58152;SDS011;43967;51.634;5.566;2022-08-21T06:54:44;5.85;;;1.90;;
58152;SDS011;43967;51.634;5.566;2022-08-21T06:59:45;12.37;;;4.13;;
58152;SDS011;43967;51.634;5.566;2022-08-21T07:04:46;11.40;;;3.85;;
58152;SDS011;43967;51.634;5.566;2022-08-21T07:09:47;10.80;;;4.10;;
58152;SDS011;43967;51.634;5.566;2022-08-21T07:14:49;10.57;;;3.93;;
58152;SDS011;43967;51.634;5.566;2022-08-21T07:19:50;11.93;;;3.83;;
58152;SDS011;43967;51.634;5.566;2022-08-21T07:24:51;17.13;;;4.03;;
58152;SDS011;43967;51.634;5.566;2022-08-21T07:29:52;12.05;;;4.03;;
58152;SDS011;43967;51.634;5.566;2022-08-21T07:34:53;13.57;;;3.83;;
58152;SDS011;43967;51.634;5.566;2022-08-21T07:39:54;14.45;;;4.40;;
58152;SDS011;43967;51.634;5.566;2022-08-21T07:44:55;15.75;;;4.45;;
58152;SDS011;43967;51.634;5.566;2022-08-21T07:49:56;10.90;;;3.77;;
58152;SDS011;43967;51.634;5.566;2022-08-21T07:54:58;11.52;;;3.47;;
58152;SDS011;43967;51.634;5.566;2022-08-21T07:59:59;13.80;;;3.78;;
58152;SDS011;43967;51.634;5.566;2022-08-21T08:05:01;10.50;;;3.50;;
58152;SDS011;43967;51.634;5.566;2022-08-21T08:10:07;12.27;;;3.30;;
58152;SDS011;43967;51.634;5.566;2022-08-21T08:15:11;11.90;;;3.67;;
58152;SDS011;43967;51.634;5.566;2022-08-21T08:20:15;12.35;;;3.25;;
58152;SDS011;43967;51.634;5.566;2022-08-21T08:25:17;10.20;;;2.97;;
58152;SDS011;43967;51.634;5.566;2022-08-21T08:30:20;12.50;;;3.67;;
58152;SDS011;43967;51.634;5.566;2022-08-21T08:35:21;11.20;;;2.90;;
58152;SDS011;43967;51.634;5.566;2022-08-21T08:45:39;12.98;;;3.15;;
58152;SDS011;43967;51.634;5.566;2022-08-21T08:50:56;14.70;;;2.92;;
58152;SDS011;43967;51.634;5.566;2022-08-21T08:56:00;10.13;;;2.80;;
58152;SDS011;43967;51.634;5.566;2022-08-21T09:01:02;11.70;;;2.97;;
58152;SDS011;43967;51.634;5.566;2022-08-21T09:06:28;10.60;;;2.80;;
58152;SDS011;43967;51.634;5.566;2022-08-21T09:11:59;11.43;;;2.78;;
58152;SDS011;43967;51.634;5.566;2022-08-21T09:17:13;10.07;;;2.60;;
58152;SDS011;43967;51.634;5.566;2022-08-21T09:22:41;11.45;;;3.05;;
58152;SDS011;43967;51.634;5.566;2022-08-21T09:27:58;10.98;;;2.70;;
58152;SDS011;43967;51.634;5.566;2022-08-21T09:32:59;11.73;;;2.87;;
58152;SDS011;43967;51.634;5.566;2022-08-21T09:38:03;9.68;;;2.70;;
58152;SDS011;43967;51.634;5.566;2022-08-21T09:48:14;10.17;;;2.40;;
58152;SDS011;43967;51.634;5.566;2022-08-21T09:53:21;12.33;;;3.10;;
58152;SDS011;43967;51.634;5.566;2022-08-21T09:58:30;11.68;;;2.95;;
58152;SDS011;43967;51.634;5.566;2022-08-21T10:03:33;11.43;;;2.80;;
58152;SDS011;43967;51.634;5.566;2022-08-21T10:08:36;9.70;;;2.60;;
58152;SDS011;43967;51.634;5.566;2022-08-21T10:19:11;10.93;;;2.40;;
58152;SDS011;43967;51.634;5.566;2022-08-21T10:24:39;10.90;;;2.50;;
58152;SDS011;43967;51.634;5.566;2022-08-21T10:29:53;9.07;;;2.00;;
58152;SDS011;43967;51.634;5.566;2022-08-21T10:35:15;10.70;;;3.22;;
58152;SDS011;43967;51.634;5.566;2022-08-21T10:40:22;9.57;;;2.60;;
58152;SDS011;43967;51.634;5.566;2022-08-21T11:01:12;9.13;;;2.67;;
58152;SDS011;43967;51.634;5.566;2022-08-21T11:06:21;11.65;;;2.90;;
58152;SDS011;43967;51.634;5.566;2022-08-21T11:11:35;7.65;;;2.67;;
58152;SDS011;43967;51.634;5.566;2022-08-21T11:16:41;8.17;;;2.90;;
58152;SDS011;43967;51.634;5.566;2022-08-21T11:21:48;10.82;;;3.42;;
58152;SDS011;43967;51.634;5.566;2022-08-21T11:27:16;11.88;;;3.83;;
58152;SDS011;43967;51.634;5.566;2022-08-21T11:43:06;15.40;;;7.78;;
58152;SDS011;43967;51.634;5.566;2022-08-21T11:58:50;13.18;;;3.38;;
58152;SDS011;43967;51.634;5.566;2022-08-21T12:03:58;10.30;;;2.83;;
58152;SDS011;43967;51.634;5.566;2022-08-21T12:09:05;10.10;;;3.40;;
58152;SDS011;43967;51.634;5.566;2022-08-21T12:29:32;8.70;;;2.80;;
58152;SDS011;43967;51.634;5.566;2022-08-21T12:34:50;9.40;;;2.22;;
58152;SDS011;43967;51.634;5.566;2022-08-21T12:40:50;7.53;;;2.30;;
58152;SDS011;43967;51.634;5.566;2022-08-21T12:45:43;15.63;;;2.97;;
58152;SDS011;43967;51.634;5.566;2022-08-21T12:50:50;9.45;;;2.40;;
58152;SDS011;43967;51.634;5.566;2022-08-21T12:56:09;10.20;;;2.35;;
58152;SDS011;43967;51.634;5.566;2022-08-21T13:06:26;9.57;;;2.30;;
58152;SDS011;43967;51.634;5.566;2022-08-21T13:11:33;7.63;;;2.10;;
58152;SDS011;43967;51.634;5.566;2022-08-21T13:16:34;7.63;;;2.00;;
58152;SDS011;43967;51.634;5.566;2022-08-21T13:21:39;8.20;;;2.17;;
58152;SDS011;43967;51.634;5.566;2022-08-21T13:26:42;8.15;;;2.03;;
58152;SDS011;43967;51.634;5.566;2022-08-21T13:31:48;7.95;;;1.83;;
58152;SDS011;43967;51.634;5.566;2022-08-21T13:36:57;8.83;;;2.20;;
58152;SDS011;43967;51.634;5.566;2022-08-21T13:42:02;9.32;;;2.33;;
58152;SDS011;43967;51.634;5.566;2022-08-21T13:47:09;8.73;;;2.10;;
58152;SDS011;43967;51.634;5.566;2022-08-21T13:52:17;10.30;;;2.03;;
58152;SDS011;43967;51.634;5.566;2022-08-21T14:02:36;9.85;;;2.20;;
58152;SDS011;43967;51.634;5.566;2022-08-21T14:07:41;9.27;;;2.07;;
58152;SDS011;43967;51.634;5.566;2022-08-21T14:12:47;9.07;;;1.80;;
58152;SDS011;43967;51.634;5.566;2022-08-21T14:17:51;10.90;;;2.47;;
58152;SDS011;43967;51.634;5.566;2022-08-21T14:22:52;7.45;;;1.95;;
58152;SDS011;43967;51.634;5.566;2022-08-21T14:27:57;11.40;;;2.00;;
58152;SDS011;43967;51.634;5.566;2022-08-21T14:33:03;8.25;;;2.17;;
58152;SDS011;43967;51.634;5.566;2022-08-21T14:38:12;11.05;;;2.22;;
58152;SDS011;43967;51.634;5.566;2022-08-21T14:43:16;13.27;;;2.30;;
58152;SDS011;43967;51.634;5.566;2022-08-21T14:48:17;11.52;;;2.38;;
58152;SDS011;43967;51.634;5.566;2022-08-21T14:53:18;8.45;;;2.15;;
58152;SDS011;43967;51.634;5.566;2022-08-21T14:58:19;9.20;;;2.00;;
58152;SDS011;43967;51.634;5.566;2022-08-21T15:03:21;8.90;;;2.20;;
58152;SDS011;43967;51.634;5.566;2022-08-21T15:08:22;10.70;;;2.75;;
58152;SDS011;43967;51.634;5.566;2022-08-21T15:13:23;13.57;;;3.55;;
58152;SDS011;43967;51.634;5.566;2022-08-21T15:18:26;10.13;;;2.50;;
58152;SDS011;43967;51.634;5.566;2022-08-21T15:23:29;10.65;;;2.13;;
58152;SDS011;43967;51.634;5.566;2022-08-21T15:28:30;9.93;;;2.78;;
58152;SDS011;43967;51.634;5.566;2022-08-21T15:33:32;7.93;;;2.40;;
58152;SDS011;43967;51.634;5.566;2022-08-21T15:38:33;8.88;;;2.10;;
58152;SDS011;43967;51.634;5.566;2022-08-21T15:43:37;8.75;;;2.40;;
58152;SDS011;43967;51.634;5.566;2022-08-21T15:48:46;10.03;;;2.60;;
58152;SDS011;43967;51.634;5.566;2022-08-21T15:53:47;11.87;;;2.73;;
58152;SDS011;43967;51.634;5.566;2022-08-21T15:58:49;9.95;;;2.55;;
58152;SDS011;43967;51.634;5.566;2022-08-21T16:03:53;10.27;;;3.05;;
58152;SDS011;43967;51.634;5.566;2022-08-21T16:08:55;12.93;;;2.80;;
58152;SDS011;43967;51.634;5.566;2022-08-21T16:13:56;9.00;;;2.40;;
58152;SDS011;43967;51.634;5.566;2022-08-21T16:18:57;8.23;;;2.33;;
58152;SDS011;43967;51.634;5.566;2022-08-21T16:23:58;7.60;;;2.40;;
58152;SDS011;43967;51.634;5.566;2022-08-21T16:29:00;10.23;;;2.58;;
58152;SDS011;43967;51.634;5.566;2022-08-21T16:34:01;10.23;;;2.50;;
58152;SDS011;43967;51.634;5.566;2022-08-21T16:39:02;8.20;;;2.20;;
58152;SDS011;43967;51.634;5.566;2022-08-21T16:44:04;8.07;;;2.33;;
58152;SDS011;43967;51.634;5.566;2022-08-21T16:49:06;10.50;;;2.90;;
58152;SDS011;43967;51.634;5.566;2022-08-21T16:54:08;8.75;;;2.08;;
58152;SDS011;43967;51.634;5.566;2022-08-21T16:59:09;8.27;;;2.20;;
58152;SDS011;43967;51.634;5.566;2022-08-21T17:04:12;10.25;;;2.70;;
58152;SDS011;43967;51.634;5.566;2022-08-21T17:09:13;7.75;;;2.30;;
58152;SDS011;43967;51.634;5.566;2022-08-21T17:14:16;10.03;;;2.30;;
58152;SDS011;43967;51.634;5.566;2022-08-21T17:19:19;18.52;;;5.07;;
58152;SDS011;43967;51.634;5.566;2022-08-21T17:24:20;15.43;;;4.93;;
58152;SDS011;43967;51.634;5.566;2022-08-21T17:29:26;21.17;;;9.53;;
58152;SDS011;43967;51.634;5.566;2022-08-21T17:34:30;15.23;;;5.80;;
58152;SDS011;43967;51.634;5.566;2022-08-21T17:39:31;12.13;;;5.47;;
58152;SDS011;43967;51.634;5.566;2022-08-21T17:44:33;8.82;;;2.35;;
58152;SDS011;43967;51.634;5.566;2022-08-21T17:49:37;8.47;;;2.40;;
58152;SDS011;43967;51.634;5.566;2022-08-21T17:54:38;10.48;;;2.13;;
58152;SDS011;43967;51.634;5.566;2022-08-21T17:59:39;7.55;;;2.28;;
58152;SDS011;43967;51.634;5.566;2022-08-21T18:04:40;10.80;;;2.80;;
58152;SDS011;43967;51.634;5.566;2022-08-21T18:09:43;14.10;;;6.10;;
58152;SDS011;43967;51.634;5.566;2022-08-21T18:14:45;13.77;;;5.13;;
58152;SDS011;43967;51.634;5.566;2022-08-21T18:19:48;11.53;;;3.67;;
58152;SDS011;43967;51.634;5.566;2022-08-21T18:24:51;9.73;;;2.80;;
58152;SDS011;43967;51.634;5.566;2022-08-21T18:29:54;10.57;;;3.40;;
58152;SDS011;43967;51.634;5.566;2022-08-21T18:34:56;10.57;;;3.58;;
58152;SDS011;43967;51.634;5.566;2022-08-21T18:39:58;14.47;;;3.67;;
58152;SDS011;43967;51.634;5.566;2022-08-21T18:45:00;10.52;;;3.35;;
58152;SDS011;43967;51.634;5.566;2022-08-21T18:50:06;9.32;;;2.83;;
58152;SDS011;43967;51.634;5.566;2022-08-21T18:55:10;9.13;;;2.90;;
58152;SDS011;43967;51.634;5.566;2022-08-21T19:00:15;11.48;;;3.00;;
58152;SDS011;43967;51.634;5.566;2022-08-21T19:05:19;10.93;;;3.58;;
58152;SDS011;43967;51.634;5.566;2022-08-21T19:10:21;10.37;;;2.73;;
58152;SDS011;43967;51.634;5.566;2022-08-21T19:15:23;10.13;;;2.87;;
58152;SDS011;43967;51.634;5.566;2022-08-21T19:25:27;9.82;;;2.45;;
58152;SDS011;43967;51.634;5.566;2022-08-21T19:30:29;9.97;;;2.87;;
58152;SDS011;43967;51.634;5.566;2022-08-21T19:35:30;12.07;;;2.83;;
58152;SDS011;43967;51.634;5.566;2022-08-21T19:40:31;9.35;;;3.30;;
58152;SDS011;43967;51.634;5.566;2022-08-21T19:45:32;12.77;;;3.20;;
58152;SDS011;43967;51.634;5.566;2022-08-21T19:50:34;10.48;;;3.72;;
58152;SDS011;43967;51.634;5.566;2022-08-21T19:55:35;10.30;;;3.17;;
58152;SDS011;43967;51.634;5.566;2022-08-21T20:00:37;9.73;;;3.30;;
58152;SDS011;43967;51.634;5.566;2022-08-21T20:05:38;11.43;;;3.27;;
58152;SDS011;43967;51.634;5.566;2022-08-21T20:10:39;8.73;;;3.10;;
58152;SDS011;43967;51.634;5.566;2022-08-21T20:15:41;10.35;;;3.17;;
58152;SDS011;43967;51.634;5.566;2022-08-21T20:20:42;8.90;;;2.87;;
58152;SDS011;43967;51.634;5.566;2022-08-21T20:25:44;8.30;;;3.00;;
58152;SDS011;43967;51.634;5.566;2022-08-21T20:30:46;10.88;;;3.47;;
58152;SDS011;43967;51.634;5.566;2022-08-21T20:35:47;7.80;;;2.80;;
58152;SDS011;43967;51.634;5.566;2022-08-21T20:40:57;8.48;;;3.13;;
58152;SDS011;43967;51.634;5.566;2022-08-21T20:46:01;9.25;;;2.85;;
58152;SDS011;43967;51.634;5.566;2022-08-21T20:51:11;11.50;;;3.30;;
58152;SDS011;43967;51.634;5.566;2022-08-21T20:57:20;21.83;;;10.70;;
58152;SDS011;43967;51.634;5.566;2022-08-21T21:01:52;22.60;;;9.25;;
58152;SDS011;43967;51.634;5.566;2022-08-21T21:06:57;10.38;;;4.25;;
58152;SDS011;43967;51.634;5.566;2022-08-21T21:12:01;12.30;;;3.10;;
58152;SDS011;43967;51.634;5.566;2022-08-21T21:17:12;11.02;;;3.42;;
58152;SDS011;43967;51.634;5.566;2022-08-21T21:22:31;9.90;;;3.45;;
58152;SDS011;43967;51.634;5.566;2022-08-21T21:27:48;14.00;;;4.40;;
58152;SDS011;43967;51.634;5.566;2022-08-21T21:33:02;10.73;;;3.78;;
58152;SDS011;43967;51.634;5.566;2022-08-21T21:38:09;8.75;;;3.25;;
58152;SDS011;43967;51.634;5.566;2022-08-21T21:43:21;12.10;;;3.90;;
58152;SDS011;43967;51.634;5.566;2022-08-21T21:48:44;12.17;;;3.63;;
58152;SDS011;43967;51.634;5.566;2022-08-21T22:10:45;10.65;;;2.92;;
58152;SDS011;43967;51.634;5.566;2022-08-21T22:15:51;8.98;;;2.63;;
58152;SDS011;43967;51.634;5.566;2022-08-21T22:21:00;9.17;;;2.70;;
58152;SDS011;43967;51.634;5.566;2022-08-21T22:26:14;8.13;;;2.40;;
58152;SDS011;43967;51.634;5.566;2022-08-21T22:31:22;7.88;;;2.33;;
58152;SDS011;43967;51.634;5.566;2022-08-21T22:36:34;9.13;;;2.63;;
58152;SDS011;43967;51.634;5.566;2022-08-21T22:41:38;7.33;;;2.47;;
58152;SDS011;43967;51.634;5.566;2022-08-21T22:46:59;8.55;;;2.30;;
58152;SDS011;43967;51.634;5.566;2022-08-21T22:52:21;8.20;;;2.38;;
58152;SDS011;43967;51.634;5.566;2022-08-21T22:57:33;7.57;;;2.10;;
58152;SDS011;43967;51.634;5.566;2022-08-21T23:07:41;7.05;;;2.00;;
58152;SDS011;43967;51.634;5.566;2022-08-21T23:12:46;7.27;;;2.00;;
58152;SDS011;43967;51.634;5.566;2022-08-21T23:17:55;7.60;;;2.20;;
58152;SDS011;43967;51.634;5.566;2022-08-21T23:39:05;6.53;;;2.03;;
58152;SDS011;43967;51.634;5.566;2022-08-21T23:44:26;7.53;;;2.10;;
58152;SDS011;43967;51.634;5.566;2022-08-21T23:49:42;8.30;;;2.22;;
